createdAt,value
2018-12-07T00:02:30.274Z,102215.15
2018-12-07T00:05:33.880Z,102208.16
2018-12-07T00:08:37.547Z,102209.60
2018-12-07T00:11:41.123Z,102203.84
2018-12-07T00:14:44.598Z,102201.38
2018-12-07T00:17:48.093Z,102190.05
2018-12-07T00:20:51.684Z,102191.29
2018-12-07T00:23:55.230Z,102186.24
2018-12-07T00:26:58.805Z,102187.59
2018-12-07T00:30:02.892Z,102187.24
2018-12-07T00:33:06.617Z,102186.08
2018-12-07T00:36:10.543Z,102181.68
2018-12-07T00:39:15.261Z,102173.93
2018-12-07T00:42:18.925Z,102174.60
2018-12-07T00:45:22.404Z,102173.08
2018-12-07T00:48:25.900Z,102169.42
2018-12-07T00:51:29.560Z,102174.77
2018-12-07T00:54:33.187Z,102164.36
2018-12-07T00:57:36.654Z,102162.49
2018-12-07T01:00:40.061Z,102167.10
2018-12-07T01:03:43.563Z,102168.22
2018-12-07T01:06:47.172Z,102175.63
2018-12-07T01:09:50.858Z,102170.67
2018-12-07T01:12:54.800Z,102167.62
2018-12-07T01:15:58.487Z,102166.35
2018-12-07T01:19:02.237Z,102162.08
2018-12-07T01:22:05.801Z,102158.63
2018-12-07T01:25:09.273Z,102162.28
2018-12-07T01:28:12.783Z,102158.49
2018-12-07T01:31:16.567Z,102153.97
2018-12-07T01:34:20.116Z,102148.52
2018-12-07T01:37:23.773Z,102149.41
2018-12-07T01:40:28.567Z,102146.37
2018-12-07T01:43:32.180Z,102138.91
2018-12-07T01:46:35.821Z,102133.48
2018-12-07T01:49:39.473Z,102131.52
2018-12-07T01:52:43.135Z,102126.15
2018-12-07T01:55:46.763Z,102126.69
2018-12-07T01:58:50.434Z,102122.68
2018-12-07T02:01:54.102Z,102116.11
2018-12-07T02:04:57.570Z,102120.36
2018-12-07T02:08:01.173Z,102119.19
2018-12-07T02:11:04.703Z,102112.69
2018-12-07T02:14:08.281Z,102110.35
2018-12-07T02:17:11.771Z,102108.31
2018-12-07T02:20:15.463Z,102107.18
2018-12-07T02:23:19.089Z,102103.98
2018-12-07T02:26:22.775Z,102097.73
2018-12-07T02:29:26.310Z,102092.83
2018-12-07T02:32:29.818Z,102086.57
2018-12-07T02:35:33.376Z,102088.02
2018-12-07T02:38:37.275Z,102090.10
2018-12-07T02:41:40.891Z,102069.14
2018-12-07T02:44:44.551Z,102066.32
2018-12-07T02:47:48.445Z,102063.64
2018-12-07T02:50:52.310Z,102059.99
2018-12-07T02:53:55.930Z,102048.35
2018-12-07T02:56:59.599Z,102052.32
2018-12-07T03:00:03.421Z,102047.00
2018-12-07T03:03:07.014Z,102044.96
2018-12-07T03:06:10.634Z,102046.10
2018-12-07T03:09:14.055Z,102045.40
2018-12-07T03:12:17.588Z,102042.28
2018-12-07T03:15:21.187Z,102027.69
2018-12-07T03:18:30.245Z,102021.53
2018-12-07T03:21:33.837Z,102019.72
2018-12-07T03:24:37.408Z,102022.36
2018-12-07T03:27:41.016Z,102016.24
2018-12-07T03:30:44.593Z,102017.73
2018-12-07T03:33:48.124Z,102015.96
2018-12-07T03:36:51.736Z,102012.88
2018-12-07T03:39:55.398Z,102002.27
2018-12-07T03:42:58.946Z,102009.06
2018-12-07T03:46:02.715Z,102010.31
2018-12-07T03:49:06.148Z,102006.59
2018-12-07T03:52:09.869Z,102011.31
2018-12-07T03:55:13.522Z,102005.15
2018-12-07T03:58:17.273Z,102006.38
2018-12-07T04:01:20.833Z,102004.68
2018-12-07T04:04:24.575Z,101994.40
2018-12-07T04:07:28.099Z,101995.40
2018-12-07T04:10:31.662Z,101989.34
2018-12-07T04:13:35.326Z,101993.85
2018-12-07T04:16:38.858Z,101995.24
2018-12-07T04:19:42.329Z,101987.22
2018-12-07T04:22:45.873Z,101982.09
2018-12-07T04:25:49.325Z,101990.27
2018-12-07T04:28:52.845Z,101976.24
2018-12-07T04:31:56.409Z,101977.16
2018-12-07T04:34:59.812Z,101974.33
2018-12-07T04:38:03.497Z,101971.85
2018-12-07T04:41:06.989Z,101974.39
2018-12-07T04:44:10.597Z,101965.41
2018-12-07T04:47:14.050Z,101968.99
2018-12-07T04:50:18.825Z,101963.77
2018-12-07T04:53:23.418Z,101956.34
2018-12-07T04:56:30.890Z,101962.60
2018-12-07T04:59:34.633Z,101962.37
2018-12-07T05:02:38.148Z,101958.84
2018-12-07T05:05:41.758Z,101959.13
2018-12-07T05:08:45.355Z,101963.27
2018-12-07T05:11:48.985Z,101959.87
2018-12-07T05:14:52.547Z,101960.77
2018-12-07T05:17:56.217Z,101962.92
2018-12-07T05:20:59.629Z,101962.58
2018-12-07T05:24:03.327Z,101967.39
2018-12-07T05:27:06.891Z,101970.82
2018-12-07T05:30:10.490Z,101972.94
2018-12-07T05:33:14.308Z,101970.75
2018-12-07T05:36:17.829Z,101960.90
2018-12-07T05:39:21.380Z,101958.90
2018-12-07T05:42:24.918Z,101950.83
2018-12-07T05:45:28.416Z,101950.16
2018-12-07T05:48:32.086Z,101950.76
2018-12-07T05:51:35.583Z,101954.29
2018-12-07T05:54:39.090Z,101942.93
2018-12-07T05:57:42.965Z,101943.95
2018-12-07T06:00:46.647Z,101941.13
2018-12-07T06:03:50.119Z,101944.20
2018-12-07T06:06:53.541Z,101938.75
2018-12-07T06:09:57.205Z,101934.91
2018-12-07T06:13:00.795Z,101936.60
2018-12-07T06:16:04.560Z,101923.70
2018-12-07T06:19:08.174Z,101922.08
2018-12-07T06:22:11.775Z,101909.59
2018-12-07T06:25:15.398Z,101899.04
2018-12-07T06:28:18.895Z,101897.83
2018-12-07T06:31:26.535Z,101893.51
2018-12-07T06:34:29.990Z,101893.07
2018-12-07T06:37:33.488Z,101895.19
2018-12-07T06:40:37.084Z,101891.41
2018-12-07T06:43:41.130Z,101895.08
2018-12-07T06:46:44.531Z,101896.10
2018-12-07T06:49:48.001Z,101889.96
2018-12-07T06:52:51.871Z,101893.09
2018-12-07T06:55:55.309Z,101885.73
2018-12-07T06:58:58.919Z,101886.51
2018-12-07T07:02:02.630Z,101882.22
2018-12-07T07:05:07.106Z,101881.92
2018-12-07T07:08:10.626Z,101880.51
2018-12-07T07:11:14.246Z,101883.99
2018-12-07T07:14:17.730Z,101878.23
2018-12-07T07:17:21.175Z,101876.58
2018-12-07T07:20:24.989Z,101874.78
2018-12-07T07:23:28.628Z,101862.97
2018-12-07T07:26:32.087Z,101871.01
2018-12-07T07:29:35.756Z,101860.96
2018-12-07T07:32:39.390Z,101859.99
2018-12-07T07:35:42.856Z,101850.94
2018-12-07T07:38:46.399Z,101847.93
2018-12-07T07:41:50.021Z,101848.34
2018-12-07T07:44:53.662Z,101849.05
2018-12-07T07:47:57.178Z,101838.20
2018-12-07T07:51:01.075Z,101833.43
2018-12-07T07:54:04.820Z,101835.67
2018-12-07T07:57:08.271Z,101830.80
2018-12-07T08:00:11.958Z,101824.14
2018-12-07T08:03:15.568Z,101820.34
2018-12-07T08:06:19.350Z,101812.97
2018-12-07T08:09:23.025Z,101812.58
2018-12-07T08:12:26.549Z,101802.04
2018-12-07T08:15:31.062Z,101798.69
2018-12-07T08:18:34.492Z,101794.01
2018-12-07T08:21:38.090Z,101782.49
2018-12-07T08:24:41.592Z,101784.99
2018-12-07T08:27:45.152Z,101781.58
2018-12-07T08:30:48.826Z,101775.43
2018-12-07T08:33:52.463Z,101774.46
2018-12-07T08:36:55.964Z,101769.84
2018-12-07T08:40:00.638Z,101775.61
2018-12-07T08:43:04.148Z,101775.13
2018-12-07T08:46:07.732Z,101772.58
2018-12-07T08:49:11.149Z,101779.82
2018-12-07T08:52:14.607Z,101778.17
2018-12-07T08:55:18.218Z,101782.32
2018-12-07T08:58:21.838Z,101774.91
2018-12-07T09:01:25.224Z,101764.55
2018-12-07T09:04:28.856Z,101770.15
2018-12-07T09:07:32.260Z,101770.43
2018-12-07T09:10:35.728Z,101769.03
2018-12-07T09:13:39.151Z,101766.33
2018-12-07T09:16:42.551Z,101754.68
2018-12-07T09:19:45.985Z,101755.11
2018-12-07T09:22:49.490Z,101751.06
2018-12-07T09:25:52.988Z,101749.68
2018-12-07T09:28:56.578Z,101742.62
2018-12-07T09:31:59.972Z,101740.77
2018-12-07T09:35:03.604Z,101747.59
2018-12-07T09:38:13.099Z,101742.42
2018-12-07T09:41:10.599Z,101746.93
2018-12-07T09:44:14.091Z,101737.67
2018-12-07T09:47:17.604Z,101736.03
2018-12-07T09:50:21.211Z,101735.60
2018-12-07T09:53:24.848Z,101729.78
2018-12-07T09:56:28.424Z,101727.37
2018-12-07T09:59:31.971Z,101727.28
2018-12-07T10:02:35.526Z,101728.46
2018-12-07T10:05:39.059Z,101724.57
2018-12-07T10:08:42.541Z,101719.60
2018-12-07T10:11:46.030Z,101708.17
2018-12-07T10:14:49.410Z,101699.15
2018-12-07T10:17:52.833Z,101708.30
2018-12-07T10:20:56.622Z,101695.71
2018-12-07T10:24:00.150Z,101687.77
2018-12-07T10:27:07.069Z,101676.95
2018-12-07T10:30:10.710Z,101686.43
2018-12-07T10:33:14.290Z,101667.96
2018-12-07T10:36:17.981Z,101660.13
2018-12-07T10:39:21.709Z,101660.98
2018-12-07T10:42:25.331Z,101652.04
2018-12-07T10:45:29.935Z,101645.03
2018-12-07T10:48:33.749Z,101636.17
2018-12-07T10:51:37.536Z,101626.14
2018-12-07T10:54:41.114Z,101621.03
2018-12-07T10:57:44.585Z,101614.40
2018-12-07T11:00:53.402Z,101600.76
2018-12-07T11:04:02.325Z,101597.65
2018-12-07T11:07:11.413Z,101593.71
2018-12-07T11:10:20.230Z,101585.14
2018-12-07T11:13:28.969Z,101578.98
2018-12-07T11:16:37.777Z,101573.55
2018-12-07T11:19:46.610Z,101561.97
2018-12-07T11:22:55.654Z,101555.70
2018-12-07T11:26:05.571Z,101560.08
2018-12-07T11:29:16.301Z,101556.97
2018-12-07T11:32:45.098Z,101555.04
2018-12-07T11:35:48.670Z,101554.05
2018-12-07T11:38:52.072Z,101544.53
2018-12-07T11:41:55.491Z,101529.86
2018-12-07T11:44:58.930Z,101533.88
2018-12-07T11:48:02.632Z,101522.07
2018-12-07T11:51:06.310Z,101524.41
2018-12-07T11:54:09.682Z,101521.22
2018-12-07T11:57:13.151Z,101497.95
2018-12-07T12:00:16.684Z,101486.79
2018-12-07T12:03:20.161Z,101479.01
2018-12-07T12:06:23.976Z,101464.31
2018-12-07T12:09:27.530Z,101460.80
2018-12-07T12:12:30.953Z,101456.15
2018-12-07T12:15:34.558Z,101444.91
2018-12-07T12:18:38.014Z,101441.07
2018-12-07T12:21:41.579Z,101429.73
2018-12-07T12:24:45.158Z,101423.22
2018-12-07T12:27:48.603Z,101410.78
2018-12-07T12:30:52.627Z,101410.54
2018-12-07T12:33:56.104Z,101403.22
2018-12-07T12:36:59.835Z,101389.00
2018-12-07T12:40:04.619Z,101380.68
2018-12-07T12:43:08.294Z,101365.46
2018-12-07T12:46:11.727Z,101359.72
2018-12-07T12:49:15.178Z,101352.45
2018-12-07T12:52:18.832Z,101346.03
2018-12-07T12:55:22.263Z,101337.59
2018-12-07T12:58:25.844Z,101336.18
2018-12-07T13:01:29.254Z,101329.72
2018-12-07T13:04:32.770Z,101321.06
2018-12-07T13:07:36.547Z,101312.64
2018-12-07T13:10:40.089Z,101301.45
2018-12-07T13:13:43.680Z,101287.87
2018-12-07T13:16:47.153Z,101271.19
2018-12-07T13:19:50.811Z,101269.97
2018-12-07T13:22:54.477Z,101251.51
2018-12-07T13:25:57.896Z,101246.98
2018-12-07T13:29:01.627Z,101240.60
2018-12-07T13:32:05.539Z,101235.90
2018-12-07T13:35:09.181Z,101233.51
2018-12-07T13:38:12.632Z,101222.44
2018-12-07T13:41:16.595Z,101205.16
2018-12-07T13:44:20.124Z,101191.65
2018-12-07T13:47:23.897Z,101189.41
2018-12-07T13:50:33.013Z,101175.42
2018-12-07T13:53:38.079Z,101171.22
2018-12-07T13:56:40.120Z,101160.23
2018-12-07T13:59:43.931Z,101158.65
2018-12-07T14:02:47.645Z,101151.68
2018-12-07T14:05:51.533Z,101145.99
2018-12-07T14:08:54.932Z,101131.26
2018-12-07T14:11:58.425Z,101131.76
2018-12-07T14:15:02.086Z,101141.33
2018-12-07T14:18:05.938Z,101130.50
2018-12-07T14:21:09.363Z,101127.77
2018-12-07T14:24:12.980Z,101126.12
2018-12-07T14:27:16.614Z,101128.09
2018-12-07T14:30:20.226Z,101131.75
2018-12-07T14:33:23.839Z,101120.59
2018-12-07T14:36:27.296Z,101105.27
2018-12-07T14:39:30.997Z,101099.64
2018-12-07T14:42:34.529Z,101101.78
2018-12-07T14:45:38.081Z,101098.84
2018-12-07T14:48:41.587Z,101092.06
2018-12-07T14:51:45.196Z,101089.07
2018-12-07T14:54:48.705Z,101091.76
2018-12-07T14:57:52.315Z,101086.29
2018-12-07T15:00:55.920Z,101086.53
2018-12-07T15:03:59.804Z,101078.54
2018-12-07T15:07:04.371Z,101074.09
2018-12-07T15:10:09.115Z,101088.85
2018-12-07T15:13:12.594Z,101076.34
2018-12-07T15:16:16.007Z,101086.26
2018-12-07T15:19:19.663Z,101067.92
2018-12-07T15:22:23.341Z,101074.37
2018-12-07T15:25:26.783Z,101078.89
2018-12-07T15:28:30.486Z,101070.63
2018-12-07T15:31:34.023Z,101060.12
2018-12-07T15:34:37.640Z,101059.33
2018-12-07T15:37:41.287Z,101051.53
2018-12-07T15:40:44.900Z,101054.36
2018-12-07T15:43:48.630Z,101053.03
2018-12-07T15:46:51.911Z,101040.23
2018-12-07T15:49:55.555Z,101039.05
2018-12-07T15:52:59.297Z,101025.40
2018-12-07T15:56:03.136Z,101040.09
2018-12-07T15:59:06.859Z,101030.37
2018-12-07T16:02:10.239Z,101024.86
2018-12-07T16:05:13.851Z,101032.55
2018-12-07T16:08:24.754Z,101011.29
2018-12-07T16:11:21.251Z,101006.99
2018-12-07T16:14:24.766Z,100986.00
2018-12-07T16:17:28.379Z,100960.00
2018-12-07T16:20:32.271Z,100948.46
2018-12-07T16:23:35.888Z,100951.91
2018-12-07T16:26:39.455Z,100950.01
2018-12-07T16:29:42.957Z,100925.77
2018-12-07T16:32:46.647Z,100932.82
2018-12-07T16:35:50.129Z,100922.41
2018-12-07T16:38:54.772Z,100917.66
2018-12-07T16:41:58.265Z,100907.88
2018-12-07T16:45:01.872Z,100908.53
2018-12-07T16:48:05.475Z,100891.29
2018-12-07T16:51:08.892Z,100880.73
2018-12-07T16:54:12.677Z,100851.65
2018-12-07T16:57:16.442Z,100853.26
2018-12-07T17:00:20.292Z,100852.99
2018-12-07T17:03:24.054Z,100848.13
2018-12-07T17:06:27.881Z,100845.14
2018-12-07T17:09:31.324Z,100832.46
2018-12-07T17:12:34.862Z,100830.61
2018-12-07T17:15:40.341Z,100819.35
2018-12-07T17:18:42.457Z,100814.39
2018-12-07T17:21:46.283Z,100815.19
2018-12-07T17:24:50.130Z,100801.11
2018-12-07T17:27:53.908Z,100801.40
2018-12-07T17:30:57.608Z,100792.81
2018-12-07T17:34:01.184Z,100789.44
2018-12-07T17:37:07.260Z,100788.73
2018-12-07T17:40:11.620Z,100782.40
2018-12-07T17:43:16.224Z,100786.47
2018-12-07T17:46:20.085Z,100796.02
2018-12-07T17:49:23.920Z,100792.03
2018-12-07T17:52:27.829Z,100782.51
2018-12-07T17:55:31.658Z,100774.89
2018-12-07T17:58:35.174Z,100767.04
2018-12-07T18:01:38.843Z,100763.18
2018-12-07T18:04:42.476Z,100767.82
2018-12-07T18:07:47.124Z,100774.88
2018-12-07T18:10:51.476Z,100772.61
2018-12-07T18:13:55.081Z,100767.53
2018-12-07T18:16:58.837Z,100767.38
2018-12-07T18:20:02.212Z,100754.09
2018-12-07T18:23:06.018Z,100746.39
2018-12-07T18:26:09.700Z,100748.31
2018-12-07T18:29:13.514Z,100743.79
2018-12-07T18:32:17.146Z,100756.28
2018-12-07T18:35:20.944Z,100747.66
2018-12-07T18:38:24.685Z,100735.27
2018-12-07T18:41:28.414Z,100737.65
2018-12-07T18:44:32.744Z,100734.74
2018-12-07T18:47:37.846Z,100727.61
2018-12-07T18:50:41.299Z,100726.94
2018-12-07T18:53:46.254Z,100737.91
2018-12-07T18:56:50.070Z,100726.63
2018-12-07T18:59:53.787Z,100730.45
2018-12-07T19:02:57.499Z,100739.13
2018-12-07T19:06:01.174Z,100734.62
2018-12-07T19:09:07.194Z,100745.92
2018-12-07T19:12:11.911Z,100751.15
2018-12-07T19:15:15.655Z,100771.68
2018-12-07T19:18:18.979Z,100778.01
2018-12-07T19:21:22.575Z,100769.36
2018-12-07T19:24:26.113Z,100773.44
2018-12-07T19:27:29.877Z,100779.49
2018-12-07T19:30:33.197Z,100785.96
2018-12-07T19:33:36.804Z,100772.73
2018-12-07T19:36:41.145Z,100782.09
2018-12-07T19:39:44.712Z,100794.52
2018-12-07T19:42:48.199Z,100801.83
2018-12-07T19:45:51.872Z,100819.22
2018-12-07T19:48:56.508Z,100817.89
2018-12-07T19:52:01.187Z,100829.68
2018-12-07T19:55:05.263Z,100831.96
2018-12-07T19:58:09.007Z,100841.70
2018-12-07T20:01:12.595Z,100863.73
2018-12-07T20:04:16.401Z,100858.38
2018-12-07T20:07:20.068Z,100877.39
2018-12-07T20:10:23.936Z,100909.60
2018-12-07T20:13:27.479Z,100931.48
2018-12-07T20:16:31.123Z,100936.25
2018-12-07T20:19:34.683Z,100946.66
2018-12-07T20:22:38.521Z,100955.08
2018-12-07T20:25:42.237Z,100955.67
2018-12-07T20:28:46.176Z,100968.65
2018-12-07T20:31:50.105Z,100985.84
2018-12-07T20:34:53.709Z,101001.93
2018-12-07T20:37:57.642Z,101028.91
2018-12-07T20:41:01.404Z,101024.73
2018-12-07T20:44:05.238Z,101035.25
2018-12-07T20:47:09.007Z,101054.36
2018-12-07T20:50:12.801Z,101070.46
2018-12-07T20:53:16.535Z,101082.93
2018-12-07T20:56:21.035Z,101089.89
2018-12-07T20:59:24.655Z,101095.82
2018-12-07T21:02:28.559Z,101108.77
2018-12-07T21:05:57.216Z,101109.06
2018-12-07T21:09:25.371Z,101131.06
2018-12-07T21:13:38.703Z,101136.40
2018-12-07T21:17:00.065Z,101129.20
2018-12-07T21:20:24.298Z,101150.07
2018-12-07T21:23:28.084Z,101150.09
2018-12-07T21:26:33.019Z,101154.84
2018-12-07T21:29:36.658Z,101153.56
2018-12-07T21:32:40.046Z,101151.64
2018-12-07T21:35:56.658Z,101150.54
2018-12-07T21:39:00.355Z,101158.47
2018-12-07T21:42:03.989Z,101158.09
2018-12-07T21:45:07.626Z,101153.04
2018-12-07T21:48:24.888Z,101171.45
2018-12-07T21:52:32.665Z,101179.89
2018-12-07T21:55:37.082Z,101189.75
2018-12-07T21:58:41.110Z,101192.34
2018-12-07T22:01:44.691Z,101194.45
2018-12-07T22:04:49.023Z,101204.59
2018-12-07T22:07:53.055Z,101214.65
2018-12-07T22:10:56.429Z,101211.92
2018-12-07T22:14:00.141Z,101221.61
2018-12-07T22:17:04.757Z,101243.85
2018-12-07T22:20:09.384Z,101238.80
2018-12-07T22:23:13.321Z,101256.66
2018-12-07T22:26:16.522Z,101266.01
2018-12-07T22:29:20.833Z,101280.03
2018-12-07T22:32:24.487Z,101282.02
2018-12-07T22:35:28.057Z,101293.99
2018-12-07T22:38:31.827Z,101295.25
2018-12-07T22:41:35.479Z,101306.17
2018-12-07T22:44:39.069Z,101311.55
2018-12-07T22:47:42.632Z,101320.10
2018-12-07T22:50:46.418Z,101314.86
2018-12-07T22:53:50.359Z,101316.46
2018-12-07T22:56:55.093Z,101329.05
2018-12-07T22:59:58.794Z,101328.53
2018-12-07T23:03:02.337Z,101330.37
2018-12-07T23:06:06.253Z,101337.47
2018-12-07T23:09:09.864Z,101341.54
2018-12-07T23:12:13.413Z,101351.70
2018-12-07T23:15:17.071Z,101351.71
2018-12-07T23:18:20.604Z,101355.92
2018-12-07T23:21:24.134Z,101369.01
2018-12-07T23:24:27.785Z,101378.21
2018-12-07T23:27:31.272Z,101387.47
2018-12-07T23:30:34.847Z,101394.31
2018-12-07T23:33:38.421Z,101387.34
2018-12-07T23:36:41.998Z,101395.01
2018-12-07T23:39:45.605Z,101393.75
2018-12-07T23:42:49.154Z,101393.76
2018-12-07T23:45:52.637Z,101376.60
2018-12-07T23:48:56.327Z,101385.63
2018-12-07T23:52:00.014Z,101388.92
2018-12-07T23:55:03.779Z,101395.59
2018-12-07T23:58:07.563Z,101398.51
